createdAt,value
2023-01-19T00:00:33.157Z,0.80
2023-01-19T00:02:59.889Z,0.90
2023-01-19T00:05:26.611Z,1.33
2023-01-19T00:07:53.288Z,1.10
2023-01-19T00:10:20.118Z,1.13
2023-01-19T00:12:46.655Z,1.02
2023-01-19T00:15:13.315Z,1.25
2023-01-19T00:17:41.194Z,1.52
2023-01-19T00:20:09.525Z,1.00
2023-01-19T00:22:36.155Z,1.00
2023-01-19T00:25:03.553Z,1.00
2023-01-19T00:27:34.769Z,0.98
2023-01-19T00:30:01.569Z,1.13
2023-01-19T00:32:28.335Z,1.13
2023-01-19T00:34:54.948Z,0.90
2023-01-19T00:37:21.753Z,1.00
2023-01-19T00:39:48.389Z,1.67
2023-01-19T00:42:33.259Z,1.25
2023-01-19T00:45:00.254Z,0.90
2023-01-19T00:47:26.916Z,1.02
2023-01-19T00:49:53.550Z,1.00
2023-01-19T00:52:20.100Z,1.52
2023-01-19T00:54:46.659Z,1.25
2023-01-19T00:57:13.275Z,1.33
2023-01-19T00:59:39.901Z,0.85
2023-01-19T01:02:06.766Z,1.40
2023-01-19T01:04:33.618Z,1.52
2023-01-19T01:07:00.333Z,1.15
2023-01-19T01:09:27.830Z,1.27
2023-01-19T01:11:54.786Z,0.50
2023-01-19T01:14:21.482Z,1.02
2023-01-19T01:16:48.271Z,0.73
2023-01-19T01:19:14.965Z,1.30
2023-01-19T01:21:41.783Z,0.80
2023-01-19T01:24:11.433Z,0.70
2023-01-19T01:26:38.512Z,0.75
2023-01-19T01:29:06.462Z,0.80
2023-01-19T01:31:33.167Z,0.77
2023-01-19T01:33:59.899Z,0.65
2023-01-19T01:36:29.227Z,0.90
2023-01-19T01:38:55.904Z,1.15
2023-01-19T01:41:25.505Z,0.50
2023-01-19T01:43:58.696Z,0.85
2023-01-19T01:46:27.128Z,1.00
2023-01-19T01:49:14.638Z,0.95
2023-01-19T01:51:47.099Z,0.57
2023-01-19T01:54:33.594Z,0.70
2023-01-19T01:57:06.127Z,0.70
2023-01-19T01:59:39.450Z,0.93
2023-01-19T02:02:30.274Z,1.02
2023-01-19T02:05:05.503Z,0.73
2023-01-19T02:08:13.463Z,0.50
2023-01-19T02:11:00.681Z,0.70
2023-01-19T02:13:30.436Z,0.60
2023-01-19T02:16:00.987Z,0.65
2023-01-19T02:18:29.759Z,0.60
2023-01-19T02:21:14.680Z,0.60
2023-01-19T02:23:45.444Z,0.50
2023-01-19T02:26:26.214Z,0.93
2023-01-19T02:29:01.830Z,0.88
2023-01-19T02:31:31.505Z,0.40
2023-01-19T02:34:00.385Z,0.63
2023-01-19T02:36:41.100Z,0.60
2023-01-19T02:39:09.873Z,0.40
2023-01-19T02:41:48.248Z,0.98
2023-01-19T02:44:16.704Z,0.70
2023-01-19T02:46:43.562Z,0.70
2023-01-19T02:49:10.143Z,0.55
2023-01-19T02:51:36.802Z,0.90
2023-01-19T02:54:18.584Z,0.60
2023-01-19T02:56:51.218Z,0.73
2023-01-19T02:59:29.145Z,0.57
2023-01-19T03:01:58.514Z,0.60
2023-01-19T03:04:54.822Z,0.50
2023-01-19T03:07:52.177Z,0.50
2023-01-19T03:10:49.632Z,0.65
2023-01-19T03:13:31.336Z,0.63
2023-01-19T03:16:05.238Z,0.40
2023-01-19T03:18:35.853Z,0.52
2023-01-19T03:21:07.125Z,0.63
2023-01-19T03:23:39.058Z,0.47
2023-01-19T03:26:10.850Z,0.47
2023-01-19T03:28:40.664Z,0.73
2023-01-19T03:31:17.838Z,0.80
2023-01-19T03:33:49.941Z,0.75
2023-01-19T03:36:26.071Z,0.50
2023-01-19T03:38:54.956Z,0.95
2023-01-19T03:41:24.342Z,0.45
2023-01-19T03:43:53.565Z,1.05
2023-01-19T03:46:21.593Z,0.65
2023-01-19T03:48:50.207Z,0.57
2023-01-19T03:51:17.962Z,1.02
2023-01-19T03:53:44.594Z,0.93
2023-01-19T03:56:21.746Z,1.25
2023-01-19T03:58:48.322Z,0.90
2023-01-19T04:01:15.663Z,1.02
2023-01-19T04:03:42.880Z,1.00
2023-01-19T04:06:10.222Z,0.68
2023-01-19T04:08:37.183Z,1.42
2023-01-19T04:11:03.891Z,1.23
2023-01-19T04:13:30.627Z,1.10
2023-01-19T04:16:01.655Z,1.83
2023-01-19T04:18:34.680Z,1.27
2023-01-19T04:21:03.353Z,1.30
2023-01-19T04:23:30.273Z,1.17
2023-01-19T04:26:01.646Z,2.33
2023-01-19T04:28:28.367Z,1.98
2023-01-19T04:30:55.177Z,1.98
2023-01-19T04:33:23.052Z,1.55
2023-01-19T04:35:54.459Z,2.15
2023-01-19T04:38:21.439Z,1.67
2023-01-19T04:40:50.163Z,1.48
2023-01-19T04:43:17.120Z,2.30
2023-01-19T04:45:46.646Z,1.80
2023-01-19T04:48:14.185Z,1.80
2023-01-19T04:50:41.988Z,1.55
2023-01-19T04:53:08.950Z,2.42
2023-01-19T04:55:37.101Z,2.08
2023-01-19T04:58:03.738Z,2.78
2023-01-19T05:00:30.804Z,1.98
2023-01-19T05:02:57.916Z,1.58
2023-01-19T05:05:25.180Z,1.75
2023-01-19T05:07:51.822Z,1.73
2023-01-19T05:10:18.754Z,2.75
2023-01-19T05:12:45.307Z,2.08
2023-01-19T05:15:11.996Z,1.70
2023-01-19T05:17:38.682Z,1.77
2023-01-19T05:20:05.912Z,1.50
2023-01-19T05:22:32.876Z,2.25
2023-01-19T05:24:59.795Z,1.77
2023-01-19T05:27:26.376Z,2.72
2023-01-19T05:29:52.974Z,2.47
2023-01-19T05:32:19.942Z,2.83
2023-01-19T05:34:46.835Z,4.10
2023-01-19T05:37:13.956Z,2.33
2023-01-19T05:39:40.690Z,2.08
2023-01-19T05:42:07.428Z,1.83
2023-01-19T05:44:34.055Z,1.63
2023-01-19T05:47:00.802Z,2.25
2023-01-19T05:49:27.429Z,1.80
2023-01-19T05:51:54.016Z,2.42
2023-01-19T05:54:20.683Z,3.25
2023-01-19T05:56:47.325Z,2.58
2023-01-19T05:59:15.328Z,1.33
2023-01-19T06:01:42.161Z,2.90
2023-01-19T06:04:08.776Z,2.53
2023-01-19T06:06:35.357Z,2.42
2023-01-19T06:09:02.203Z,1.92
2023-01-19T06:11:28.952Z,2.33
2023-01-19T06:13:55.541Z,2.63
2023-01-19T06:16:22.135Z,2.90
2023-01-19T06:18:48.764Z,1.70
2023-01-19T06:21:15.696Z,2.63
2023-01-19T06:23:42.289Z,2.95
2023-01-19T06:26:08.974Z,1.85
2023-01-19T06:28:35.606Z,2.28
2023-01-19T06:31:02.375Z,1.60
2023-01-19T06:33:29.147Z,1.83
2023-01-19T06:35:56.099Z,2.67
2023-01-19T06:38:23.068Z,1.85
2023-01-19T06:40:55.574Z,2.70
2023-01-19T06:43:22.648Z,3.25
2023-01-19T06:45:50.332Z,2.03
2023-01-19T06:48:17.508Z,3.00
2023-01-19T06:50:48.407Z,2.88
2023-01-19T06:53:16.834Z,4.30
2023-01-19T06:55:44.156Z,3.40
2023-01-19T06:58:11.225Z,3.30
2023-01-19T07:00:38.204Z,3.30
2023-01-19T07:03:07.627Z,3.25
2023-01-19T07:05:37.379Z,2.83
2023-01-19T07:08:04.556Z,2.55
2023-01-19T07:11:24.921Z,2.67
2023-01-19T07:13:18.352Z,2.72
2023-01-19T07:15:44.901Z,2.90
2023-01-19T07:18:11.604Z,2.45
2023-01-19T07:20:38.248Z,1.92
2023-01-19T07:23:04.984Z,2.40
2023-01-19T07:25:31.938Z,2.83
2023-01-19T07:28:00.125Z,2.70
2023-01-19T07:30:27.290Z,3.00
2023-01-19T07:32:58.708Z,3.55
2023-01-19T07:35:25.728Z,2.83
2023-01-19T07:37:52.724Z,3.10
2023-01-19T07:40:19.579Z,3.10
2023-01-19T07:42:50.569Z,3.15
2023-01-19T07:45:18.234Z,3.88
2023-01-19T07:47:45.160Z,3.20
2023-01-19T07:50:13.887Z,2.85
2023-01-19T07:52:40.646Z,2.42
2023-01-19T07:55:08.555Z,2.88
2023-01-19T07:57:36.052Z,2.70
2023-01-19T08:00:03.761Z,2.20
2023-01-19T08:02:30.625Z,2.95
2023-01-19T08:04:57.375Z,3.05
2023-01-19T08:07:23.950Z,3.63
2023-01-19T08:09:50.538Z,2.47
2023-01-19T08:12:17.228Z,2.65
2023-01-19T08:14:43.980Z,3.45
2023-01-19T08:17:13.114Z,3.47
2023-01-19T08:19:41.536Z,3.58
2023-01-19T08:22:08.238Z,2.65
2023-01-19T08:24:35.019Z,3.67
2023-01-19T08:27:03.031Z,3.67
2023-01-19T08:29:33.742Z,3.35
2023-01-19T08:32:02.305Z,3.55
2023-01-19T08:34:32.410Z,3.33
2023-01-19T08:36:59.510Z,3.20
2023-01-19T08:39:27.522Z,2.40
2023-01-19T08:41:54.477Z,3.60
2023-01-19T08:44:21.578Z,3.63
2023-01-19T08:46:48.536Z,2.60
2023-01-19T08:49:16.229Z,3.47
2023-01-19T08:51:45.943Z,2.95
2023-01-19T08:54:13.555Z,3.00
2023-01-19T08:56:40.235Z,2.88
2023-01-19T08:59:10.359Z,1.98
2023-01-19T09:01:37.915Z,2.60
2023-01-19T09:04:05.038Z,3.05
2023-01-19T09:06:32.814Z,2.38
2023-01-19T09:08:59.622Z,2.75
2023-01-19T09:11:27.622Z,3.97
2023-01-19T09:13:54.306Z,1.85
2023-01-19T09:16:20.974Z,2.25
2023-01-19T09:18:47.827Z,3.08
2023-01-19T09:21:15.133Z,2.03
2023-01-19T09:23:41.858Z,1.80
2023-01-19T09:26:08.918Z,2.13
2023-01-19T09:28:35.626Z,2.70
2023-01-19T09:31:08.858Z,1.95
2023-01-19T09:33:35.836Z,2.50
2023-01-19T09:36:02.511Z,1.63
2023-01-19T09:38:32.779Z,1.55
2023-01-19T09:41:00.752Z,1.45
2023-01-19T09:43:47.880Z,1.88
2023-01-19T09:46:25.663Z,1.75
2023-01-19T09:48:58.672Z,2.00
2023-01-19T09:51:28.214Z,1.33
2023-01-19T09:54:15.915Z,1.15
2023-01-19T09:56:50.586Z,1.65
2023-01-19T09:59:28.448Z,1.23
2023-01-19T10:02:37.094Z,1.38
2023-01-19T10:05:21.554Z,1.60
2023-01-19T10:08:03.747Z,1.42
2023-01-19T10:10:35.947Z,1.23
2023-01-19T10:13:42.634Z,1.52
2023-01-19T10:16:27.576Z,1.50
2023-01-19T10:18:59.670Z,1.15
2023-01-19T10:21:44.140Z,1.48
2023-01-19T10:24:18.339Z,1.08
2023-01-19T10:26:52.569Z,1.17
2023-01-19T10:29:30.685Z,1.90
2023-01-19T10:32:30.638Z,1.17
2023-01-19T10:34:59.813Z,1.77
2023-01-19T10:37:26.331Z,1.40
2023-01-19T10:39:55.945Z,0.80
2023-01-19T10:42:22.922Z,1.20
2023-01-19T10:44:50.401Z,0.75
2023-01-19T10:47:20.089Z,1.00
2023-01-19T10:49:48.427Z,0.98
2023-01-19T10:52:26.225Z,1.00
2023-01-19T10:54:53.110Z,0.95
2023-01-19T10:57:32.207Z,1.02
2023-01-19T10:59:59.039Z,0.50
2023-01-19T11:02:28.097Z,0.77
2023-01-19T11:05:22.297Z,0.77
2023-01-19T11:07:48.880Z,1.27
2023-01-19T11:10:26.131Z,1.15
2023-01-19T11:13:03.647Z,0.73
2023-01-19T11:15:32.144Z,0.98
2023-01-19T11:17:59.365Z,0.88
2023-01-19T11:20:44.101Z,1.10
2023-01-19T11:23:29.605Z,10.32
2023-01-19T11:26:03.795Z,0.75
2023-01-19T11:28:41.996Z,0.82
2023-01-19T11:31:16.035Z,0.98
2023-01-19T11:33:49.733Z,1.17
2023-01-19T11:36:23.167Z,2.95
2023-01-19T11:38:52.664Z,0.75
2023-01-19T11:41:22.579Z,9.60
2023-01-19T11:43:53.130Z,2.53
2023-01-19T11:46:20.994Z,0.90
2023-01-19T11:49:01.120Z,0.82
2023-01-19T11:51:58.915Z,0.60
2023-01-19T11:54:30.036Z,0.50
2023-01-19T11:56:59.798Z,0.68
2023-01-19T11:59:26.529Z,0.60
2023-01-19T12:01:57.968Z,0.60
2023-01-19T12:04:38.527Z,0.80
2023-01-19T12:07:10.177Z,0.70
2023-01-19T12:09:44.399Z,0.70
2023-01-19T12:12:33.133Z,0.73
2023-01-19T12:15:06.206Z,0.70
2023-01-19T12:17:36.784Z,0.50
2023-01-19T12:20:39.091Z,0.45
2023-01-19T12:23:12.147Z,0.60
2023-01-19T12:25:47.098Z,0.80
2023-01-19T12:28:16.505Z,0.60
2023-01-19T12:30:50.265Z,0.70
2023-01-19T12:33:23.530Z,0.93
2023-01-19T12:36:00.899Z,0.77
2023-01-19T12:38:37.863Z,0.60
2023-01-19T12:41:22.800Z,0.50
2023-01-19T12:44:09.334Z,1.17
2023-01-19T12:46:37.022Z,0.40
2023-01-19T12:49:21.798Z,0.40
2023-01-19T12:51:52.192Z,0.45
2023-01-19T12:54:40.084Z,0.32
2023-01-19T12:57:21.058Z,0.40
2023-01-19T12:59:56.078Z,0.40
2023-01-19T13:02:28.474Z,0.45
2023-01-19T13:05:07.301Z,0.35
2023-01-19T13:08:02.048Z,0.30
2023-01-19T13:10:56.346Z,0.35
2023-01-19T13:13:38.073Z,0.30
2023-01-19T13:16:20.289Z,0.30
2023-01-19T13:18:58.684Z,0.40
2023-01-19T13:21:36.735Z,0.30
2023-01-19T13:24:07.483Z,0.73
2023-01-19T13:26:49.246Z,0.30
2023-01-19T13:29:25.144Z,0.43
2023-01-19T13:32:02.475Z,0.40
2023-01-19T13:34:36.163Z,0.30
2023-01-19T13:37:04.942Z,0.30
2023-01-19T13:39:46.290Z,0.40
2023-01-19T13:42:36.075Z,0.35
2023-01-19T13:45:15.795Z,0.40
2023-01-19T13:47:45.682Z,0.30
2023-01-19T13:50:24.621Z,0.30
2023-01-19T13:52:54.061Z,0.40
2023-01-19T13:55:21.706Z,0.70
2023-01-19T13:57:50.592Z,0.40
2023-01-19T14:00:20.660Z,0.30
2023-01-19T14:03:14.044Z,0.40
2023-01-19T14:05:43.357Z,0.40
2023-01-19T14:08:13.097Z,0.30
2023-01-19T14:10:46.472Z,0.40
2023-01-19T14:13:15.568Z,0.30
2023-01-19T14:15:42.558Z,0.40
2023-01-19T14:18:18.935Z,0.30
2023-01-19T14:21:15.262Z,0.30
2023-01-19T14:23:51.465Z,0.32
2023-01-19T14:26:43.224Z,0.38
2023-01-19T14:29:09.818Z,0.45
2023-01-19T14:31:48.917Z,0.30
2023-01-19T14:34:37.417Z,0.50
2023-01-19T14:37:12.449Z,0.25
2023-01-19T14:39:45.731Z,0.30
2023-01-19T14:42:17.648Z,0.50
2023-01-19T14:44:49.385Z,0.40
2023-01-19T14:47:41.086Z,0.50
2023-01-19T14:50:22.872Z,0.30
2023-01-19T14:52:56.626Z,0.40
2023-01-19T14:55:28.851Z,0.40
2023-01-19T14:57:55.541Z,0.40
2023-01-19T15:00:22.539Z,0.32
2023-01-19T15:02:49.316Z,0.32
2023-01-19T15:05:16.404Z,0.40
2023-01-19T15:07:45.767Z,0.45
2023-01-19T15:10:23.773Z,0.35
2023-01-19T15:12:52.472Z,0.40
2023-01-19T15:15:25.785Z,0.50
2023-01-19T15:17:55.302Z,0.52
2023-01-19T15:20:23.793Z,0.50
2023-01-19T15:22:50.476Z,0.50
2023-01-19T15:25:19.846Z,0.40
2023-01-19T15:27:48.009Z,0.40
2023-01-19T15:30:17.762Z,0.38
2023-01-19T15:32:44.888Z,0.50
2023-01-19T15:35:24.403Z,0.30
2023-01-19T15:37:51.184Z,0.30
2023-01-19T15:40:19.707Z,0.35
2023-01-19T15:42:46.639Z,0.40
2023-01-19T15:45:36.499Z,0.40
2023-01-19T15:48:08.384Z,0.30
2023-01-19T15:50:45.007Z,0.30
2023-01-19T15:53:17.017Z,0.20
2023-01-19T15:55:44.016Z,0.30
2023-01-19T15:58:13.873Z,0.35
2023-01-19T16:00:41.665Z,0.40
2023-01-19T16:03:09.968Z,0.35
2023-01-19T16:05:42.819Z,0.30
2023-01-19T16:08:11.232Z,0.30
2023-01-19T16:10:38.261Z,0.40
2023-01-19T16:13:04.861Z,0.70
2023-01-19T16:15:31.641Z,0.70
2023-01-19T16:17:58.514Z,0.50
2023-01-19T16:20:25.599Z,0.30
2023-01-19T16:22:56.504Z,0.30
2023-01-19T16:25:25.174Z,0.28
2023-01-19T16:27:51.900Z,0.13
2023-01-19T16:30:19.482Z,0.25
2023-01-19T16:32:46.776Z,0.50
2023-01-19T16:35:15.775Z,0.20
2023-01-19T16:37:42.588Z,0.30
2023-01-19T16:40:10.103Z,0.40
2023-01-19T16:42:37.365Z,0.20
2023-01-19T16:45:04.257Z,0.20
2023-01-19T16:47:30.866Z,0.20
2023-01-19T16:49:57.662Z,0.20
2023-01-19T16:52:24.322Z,0.20
2023-01-19T16:54:54.752Z,0.40
2023-01-19T16:57:21.537Z,0.40
2023-01-19T16:59:48.377Z,0.50
2023-01-19T17:02:15.178Z,0.50
2023-01-19T17:04:41.763Z,0.40
2023-01-19T17:07:08.388Z,0.40
2023-01-19T17:09:34.982Z,0.32
2023-01-19T17:12:01.638Z,0.40
2023-01-19T17:14:28.373Z,0.40
2023-01-19T17:16:55.012Z,0.30
2023-01-19T17:19:23.113Z,0.20
2023-01-19T17:21:50.559Z,0.30
2023-01-19T17:24:17.579Z,0.40
2023-01-19T17:26:46.225Z,0.60
2023-01-19T17:29:12.856Z,1.05
2023-01-19T17:31:40.173Z,0.30
2023-01-19T17:34:06.832Z,0.50
2023-01-19T17:36:33.877Z,0.30
2023-01-19T17:39:05.087Z,0.30
2023-01-19T17:41:34.994Z,0.40
2023-01-19T17:44:03.290Z,0.38
2023-01-19T17:46:30.100Z,0.30
2023-01-19T17:49:04.369Z,0.20
2023-01-19T17:51:31.593Z,0.30
2023-01-19T17:53:59.137Z,0.40
2023-01-19T17:56:30.018Z,0.40
2023-01-19T17:58:58.029Z,0.50
2023-01-19T18:01:27.029Z,0.90
2023-01-19T18:03:54.390Z,1.02
2023-01-19T18:06:21.814Z,18.40
2023-01-19T18:08:49.487Z,4.70
2023-01-19T18:11:18.668Z,1.20
2023-01-19T18:13:50.929Z,0.70
2023-01-19T18:16:25.763Z,0.70
2023-01-19T18:18:53.822Z,0.90
2023-01-19T18:21:21.911Z,0.60
2023-01-19T18:23:49.936Z,0.43
2023-01-19T18:26:19.512Z,0.60
2023-01-19T18:28:46.911Z,0.60
2023-01-19T18:31:17.357Z,0.60
2023-01-19T18:33:44.076Z,0.50
2023-01-19T18:36:11.045Z,0.80
2023-01-19T18:38:38.561Z,0.70
2023-01-19T18:41:11.403Z,0.50
2023-01-19T18:43:39.067Z,0.60
2023-01-19T18:46:06.077Z,0.40
2023-01-19T18:48:33.524Z,0.40
2023-01-19T18:51:03.545Z,0.60
2023-01-19T18:53:31.918Z,0.55
2023-01-19T18:56:00.180Z,0.30
2023-01-19T18:58:29.483Z,0.40
2023-01-19T19:00:56.738Z,0.40
2023-01-19T19:03:23.757Z,0.43
2023-01-19T19:05:50.541Z,0.35
2023-01-19T19:08:17.338Z,0.30
2023-01-19T19:10:44.282Z,0.30
2023-01-19T19:13:18.010Z,0.20
2023-01-19T19:15:44.793Z,0.20
2023-01-19T19:18:14.303Z,0.20
2023-01-19T19:20:43.089Z,0.10
2023-01-19T19:23:10.988Z,0.10
2023-01-19T19:25:38.192Z,0.13
2023-01-19T19:28:04.876Z,0.10
2023-01-19T19:30:34.332Z,0.10
2023-01-19T19:33:01.333Z,0.17
2023-01-19T19:35:27.940Z,0.10
2023-01-19T19:37:57.665Z,0.15
2023-01-19T19:40:27.933Z,0.10
2023-01-19T19:42:56.360Z,0.00
2023-01-19T19:45:24.909Z,0.10
2023-01-19T19:47:51.537Z,0.00
2023-01-19T19:50:18.647Z,0.00
2023-01-19T19:52:45.365Z,0.00
2023-01-19T19:55:12.757Z,0.00
2023-01-19T19:57:39.547Z,0.10
2023-01-19T20:00:06.905Z,0.10
2023-01-19T20:02:33.641Z,0.30
2023-01-19T20:05:00.491Z,0.10
2023-01-19T20:07:27.355Z,0.00
2023-01-19T20:09:55.306Z,0.00
2023-01-19T20:12:22.469Z,0.00
2023-01-19T20:14:49.293Z,0.10
2023-01-19T20:17:16.602Z,0.10
2023-01-19T20:19:43.891Z,0.10
2023-01-19T20:22:10.720Z,0.10
2023-01-19T20:24:37.611Z,0.20
2023-01-19T20:27:04.374Z,0.10
2023-01-19T20:29:30.991Z,0.10
2023-01-19T20:31:58.525Z,0.10
2023-01-19T20:34:32.114Z,0.10
2023-01-19T20:37:00.644Z,0.10
2023-01-19T20:39:29.031Z,0.10
2023-01-19T20:41:56.112Z,0.20
2023-01-19T20:44:25.217Z,0.10
2023-01-19T20:46:53.578Z,0.10
2023-01-19T20:49:20.780Z,0.17
2023-01-19T20:51:48.437Z,0.20
2023-01-19T20:54:18.862Z,0.40
2023-01-19T20:56:45.947Z,0.00
2023-01-19T20:59:13.315Z,0.05
2023-01-19T21:01:41.042Z,0.10
2023-01-19T21:04:08.528Z,0.10
2023-01-19T21:06:35.938Z,0.00
2023-01-19T21:09:03.300Z,0.00
2023-01-19T21:11:30.536Z,0.00
2023-01-19T21:14:00.457Z,0.10
2023-01-19T21:16:29.785Z,0.10
2023-01-19T21:18:56.582Z,0.10
2023-01-19T21:21:30.807Z,0.10
2023-01-19T21:23:59.828Z,0.10
2023-01-19T21:26:26.859Z,0.10
2023-01-19T21:28:53.536Z,0.20
2023-01-19T21:31:22.954Z,0.17
2023-01-19T21:33:54.057Z,0.10
2023-01-19T21:36:21.557Z,0.20
2023-01-19T21:38:50.737Z,0.30
2023-01-19T21:41:17.600Z,0.30
2023-01-19T21:43:44.251Z,0.20
2023-01-19T21:46:29.601Z,0.30
2023-01-19T21:49:00.597Z,0.30
2023-01-19T21:51:34.887Z,0.20
2023-01-19T21:54:03.083Z,0.22
2023-01-19T21:56:30.404Z,0.20
2023-01-19T21:58:57.816Z,0.20
2023-01-19T22:01:25.282Z,0.10
2023-01-19T22:03:56.765Z,0.20
2023-01-19T22:06:24.144Z,0.10
2023-01-19T22:08:50.970Z,0.10
2023-01-19T22:11:19.355Z,0.10
2023-01-19T22:13:46.827Z,0.20
2023-01-19T22:16:20.199Z,0.20
2023-01-19T22:18:52.903Z,0.10
2023-01-19T22:21:25.383Z,0.20
2023-01-19T22:23:54.360Z,0.20
2023-01-19T22:26:21.691Z,0.30
2023-01-19T22:28:48.423Z,1.98
2023-01-19T22:31:18.292Z,3.50
2023-01-19T22:33:45.456Z,3.42
2023-01-19T22:36:14.464Z,2.47
2023-01-19T22:38:42.134Z,3.47
2023-01-19T22:41:13.508Z,2.15
2023-01-19T22:43:40.210Z,1.58
2023-01-19T22:46:08.719Z,1.15
2023-01-19T22:48:36.096Z,1.08
2023-01-19T22:51:03.221Z,2.60
2023-01-19T22:53:33.702Z,2.78
2023-01-19T22:56:00.902Z,4.05
2023-01-19T22:58:27.816Z,4.72
2023-01-19T23:00:54.593Z,5.45
2023-01-19T23:03:21.163Z,4.10
2023-01-19T23:05:47.803Z,5.47
2023-01-19T23:08:14.464Z,2.78
2023-01-19T23:10:41.121Z,3.50
2023-01-19T23:13:07.692Z,2.75
2023-01-19T23:15:34.996Z,3.10
2023-01-19T23:18:01.781Z,3.00
2023-01-19T23:20:28.429Z,3.50
2023-01-19T23:22:55.084Z,3.55
2023-01-19T23:25:21.707Z,5.10
2023-01-19T23:27:48.456Z,4.93
2023-01-19T23:30:15.195Z,5.53
2023-01-19T23:32:47.009Z,5.68
2023-01-19T23:35:14.909Z,7.65
2023-01-19T23:37:41.923Z,9.25
2023-01-19T23:40:10.697Z,5.03
2023-01-19T23:42:37.399Z,0.50
2023-01-19T23:45:04.866Z,0.55
2023-01-19T23:47:33.754Z,0.28
2023-01-19T23:50:00.388Z,0.10
2023-01-19T23:52:26.990Z,0.10
2023-01-19T23:54:53.883Z,0.03
2023-01-19T23:57:20.848Z,0.00
2023-01-19T23:59:47.432Z,0.00
